LTFH

Details ICAO LTFH (SZF)
Name CARSAMBA
Region Turkey
Timezone Europe/Istanbul (UTC+3.0)
Plans Departing 81
Arriving 95
Stats Elevation 18 ft / 5 m (AMSL)
Location 41.254480° 36.567103°
Runways 1
Magnetic Variation 6.200° E
Sunrise 2017-12-15 04:53:41 UTC / 2017-12-15 07:53:41 Local
Sunset 2017-12-15 14:06:46 UTC / 2017-12-15 17:06:46 Local
Advertisement - Login to hide

Runways

ID Width Length Bearing (true) Bearing (mag) Surface Threshold Offset Overrun Length
13 148 ft / 45 m 9,798 ft / 2,986 m 133.61° 127.41° Concrete 0 ft / 0 m 195 ft / 59 m
31 148 ft / 45 m 9,798 ft / 2,986 m 313.63° 307.43° Concrete 0 ft / 0 m 195 ft / 59 m

Approach Navaids

Runway Type Ident Frequency Range Bearing (true) Bearing (mag) Slope Elevation
13 Localiser ICRM 110.10 MHz 18 nm / 33 km 133.64° 127.44° - 18 ft / 5 m (AMSL)
13 Glidescope ICRM 110.10 MHz 10 nm / 19 km 133.62° 127.42° 3.00° 18 ft / 5 m (AMSL)

Map

Weather


0- 5 10 15 20 25 30 35+ Temperature / ° C

Clouds and Precipitation
Forecast for 2017-12-15 06:00 UTC. Updated 2 hours ago

Ground ~20,000 ft ~40,000 ft Winds

METAR

LTFH 150650Z 10003KT 060V160 CAVOK 08/04 Q1017 NOSIG

TAF

Not found

Frequencies

Recorded 129.35 MHz ATIS
Tower 118.27 MHz TWR
Approach 118.22 MHz APP
Ground 121.70 MHz GND
Tower 118.35 MHz TWR
Approach 118.17 MHz APP
Warning: Do not use this data for real-world aviation or navigation. No guarantee of current accuracy is given.